Terminal Aerodrome Forecast
Issued by NWS Mt. Holly, NJ

Home | Current Version | Previous Version | Text Only | Print | Product List | Glossary On
Versions: 1 2 3 4 5 6 7 8 9 10 11 12 13 14 15 16 17 18 19 20 21
590
FTUS41 KPHI 240855 AAA
TAFRDG
TAF AMD
KRDG 240855Z 2409/2506 15012G25KT 6SM -SHRA BKN022 BKN027 OVC040
     FM241000 18011G21KT 2SM +SHRA OVC015
     FM241400 20007KT 6SM -SHRA OVC025
     FM241600 20006KT P6SM BKN030
     FM241800 20006KT P6SM BKN250
     FM250100 VRB02KT P6SM SCT050
      TEMPO 2504/2506 2SM BR=

USA.gov is the U.S. government's official web portal to all federal, state and local government web resources and services.